Roann, IN (46974)

10:29 AM EST on November 26, 2014 (GMT -0500)
South of RoAnn, In. | Change Station
CLOSE
Current Station
Personal Weather Station
Location: Wabash, IN
Elevation: 769 ft
Nearby Weather Stations

Elev 769 ft 40.89 °N, 85.92 °W | Updated 48 seconds ago

Mostly Cloudy
Mostly Cloudy
25.0 °F
Feels Like 25 °F
N
3.0
Wind Variable Wind from SE
Gusts 5.0 mph

Today
High -- | Low -- °F
--% Chance of Precip.
Yesterday
High -- | Low -- °F
Precip. -- in
7:43 AM 5:18 PM
Waxing Crescent, 20% visible
Pressure 30.17 in
Visibility 3.0 miles
Clouds Scattered Clouds 700 ft
Overcast 1300 ft
Windchill 25 °F
Dew Point 21 °F
Humidity 84%
Rainfall 0.00 in
Snow Depth Not available.
UV 0.5 out of 12
Pollen .10 out of 12
Air Quality Not available.
Flu Activity Not available.
METAR KRCR 261515Z AUTO 11006KT 3SM HZ SCT007 OVC013 M01/M04 A3017 RMK AO2

More Conditions Fewer Conditions

Pressure 30.17 in
Visibility 3.0 miles
Clouds Scattered Clouds 700 ft
Overcast 1300 ft
Windchill 25 °F
Dew Point 21 °F
Humidity 84%
Rainfall 0.00 in
Snow Depth Not available.
UV 0.5 out of 12
Pollen .10 out of 12
Air Quality Not available.
Flu Activity Not available.
METAR KRCR 261515Z AUTO 11006KT 3SM HZ SCT007 OVC013 M01/M04 A3017 RMK AO2

More Conditions Fewer Conditions

10-Day Weather Forecast

Almanac

Astronomy

Nov. 26, 2014 Rise Set
Actual Time
Civil Twilight
Nautical Twilight
Astronomical Twilight
Moon
Length of Visible Light
Length of Day
Tomorrow will be .
, % of the Moon is Illuminated

Today's Extremes

State Highs State Lows

Community

WunderPhotos

Upload Photos

1,773,771 photos uploaded!

WunderBlogs® & News

Nearby

Air Quality

  Air Quality AQ Index Pollutant
Not available.

Snow Depth

Station Depth Elevation

Earthquake Activity

City Distance Mag. Time & Date
Minimum magnitude displayed is 2.5.

Coastal Water Temperatures

Place Temperature

Nearby Weather Stations